Time;durP1;ratioP1;P1;durP2;ratioP2;P2;SDS_P1;SDS_P2;PMS_P1;PMS_P2;Temp;Humidity;BMP_temperature;BMP_pressure;BME280_temperature;BME280_humidity;BME280_pressure;Samples;Min_cycle;Max_cycle;Signal;HPM_P1;HPM_P2
2023/11/26 00:01:42;;;;;;;36.40;16.63;;;0.80;99.90;;;;;;6231411;28;20050;-90
2023/11/26 00:04:44;;;;;;;39.50;18.38;;;0.90;99.90;;;;;;6257941;28;20130;-89
2023/11/26 00:07:46;;;;;;;39.80;17.75;;;0.90;99.90;;;;;;6260250;28;20049;-87
2023/11/26 00:10:48;;;;;;;36.78;16.45;;;0.80;99.90;;;;;;6253685;28;20071;-90
2023/11/26 00:13:50;;;;;;;34.78;15.52;;;0.70;99.90;;;;;;6217002;28;20062;-89
2023/11/26 00:16:51;;;;;;;36.47;16.63;;;0.70;99.90;;;;;;6228163;28;20061;-88
2023/11/26 00:19:54;;;;;;;35.17;15.45;;;0.80;99.90;;;;;;6203913;28;20060;-88
2023/11/26 00:22:56;;;;;;;33.03;14.70;;;0.70;99.90;;;;;;6227347;28;20424;-89
2023/11/26 00:25:58;;;;;;;34.72;14.38;;;0.70;99.90;;;;;;6204510;28;20054;-88
2023/11/26 00:29:00;;;;;;;29.33;13.43;;;0.60;99.90;;;;;;6210385;28;20050;-88
2023/11/26 00:32:01;;;;;;;27.73;14.15;;;0.50;99.90;;;;;;6226924;28;20057;-88
2023/11/26 00:35:03;;;;;;;34.03;14.48;;;0.50;99.90;;;;;;6226591;28;20050;-88
2023/11/26 00:38:05;;;;;;;32.00;14.63;;;0.50;99.90;;;;;;6204098;28;20050;-88
2023/11/26 00:41:07;;;;;;;32.58;15.55;;;0.40;99.90;;;;;;6227682;28;20049;-87
2023/11/26 00:44:09;;;;;;;34.67;15.45;;;0.40;99.90;;;;;;6224376;28;20050;-88
2023/11/26 00:47:11;;;;;;;32.88;14.30;;;0.40;99.90;;;;;;6202042;28;20054;-88
2023/11/26 00:50:14;;;;;;;34.38;14.80;;;0.30;99.90;;;;;;6225869;28;20409;-88
2023/11/26 00:53:16;;;;;;;34.38;14.70;;;0.40;99.90;;;;;;6202594;28;20054;-88
2023/11/26 00:56:17;;;;;;;31.23;14.52;;;0.40;99.90;;;;;;6226730;28;20054;-87
2023/11/26 00:59:19;;;;;;;34.95;15.32;;;0.40;99.90;;;;;;6201478;28;20093;-88
2023/11/26 01:02:22;;;;;;;31.02;14.65;;;0.40;99.90;;;;;;6226113;28;20046;-88
2023/11/26 01:05:24;;;;;;;31.38;14.20;;;0.40;99.90;;;;;;6202906;28;20406;-88
2023/11/26 01:08:26;;;;;;;28.05;14.45;;;0.30;99.90;;;;;;6226688;28;20077;-87
2023/11/26 01:11:28;;;;;;;33.40;14.43;;;0.20;99.90;;;;;;6202613;28;20050;-88
2023/11/26 01:14:30;;;;;;;35.55;14.40;;;0.20;99.90;;;;;;6224238;28;20077;-88
2023/11/26 01:17:32;;;;;;;29.77;13.90;;;0.20;99.90;;;;;;6201364;28;20060;-88
2023/11/26 01:20:34;;;;;;;29.05;15.05;;;0.20;99.90;;;;;;6224975;28;20077;-88
2023/11/26 01:23:36;;;;;;;38.33;14.48;;;0.20;99.90;;;;;;6202848;28;20058;-87
2023/11/26 01:26:37;;;;;;;32.85;14.07;;;0.20;99.90;;;;;;6225571;28;20054;-89
2023/11/26 01:29:39;;;;;;;25.73;13.30;;;0.20;99.90;;;;;;6200600;28;20043;-89
2023/11/26 01:32:41;;;;;;;27.25;13.40;;;0.20;99.90;;;;;;6225266;28;20061;-89
2023/11/26 01:35:43;;;;;;;33.47;13.40;;;0.10;99.90;;;;;;6203611;28;20093;-89
2023/11/26 01:38:45;;;;;;;35.67;14.60;;;0.10;99.90;;;;;;6227210;28;20057;-90
2023/11/26 01:41:47;;;;;;;29.58;14.02;;;0.20;99.90;;;;;;6202730;28;20536;-90
2023/11/26 01:44:48;;;;;;;29.17;13.40;;;0.10;99.90;;;;;;6223596;28;20564;-89
2023/11/26 01:47:50;;;;;;;27.42;14.00;;;0.20;99.90;;;;;;6202834;28;20077;-89
2023/11/26 01:50:52;;;;;;;31.15;14.77;;;0.20;99.90;;;;;;6226186;28;20533;-89
2023/11/26 01:53:53;;;;;;;33.83;13.43;;;0.30;99.90;;;;;;6203083;28;20133;-89
2023/11/26 01:56:55;;;;;;;33.40;14.05;;;0.30;99.90;;;;;;6226065;28;20128;-89
2023/11/26 01:59:56;;;;;;;27.23;12.65;;;0.30;99.90;;;;;;6199835;28;20054;-89
2023/11/26 02:02:58;;;;;;;29.30;12.95;;;0.30;99.90;;;;;;6223814;28;20046;-88
2023/11/26 02:06:00;;;;;;;26.77;12.90;;;0.30;99.90;;;;;;6201653;28;20135;-89
2023/11/26 02:09:03;;;;;;;30.83;13.35;;;0.30;99.90;;;;;;6226584;28;20370;-89
2023/11/26 02:12:04;;;;;;;29.15;13.10;;;0.40;99.90;;;;;;6210135;28;20042;-84
2023/11/26 02:15:06;;;;;;;25.23;12.05;;;0.40;99.90;;;;;;6274436;28;20060;-88
2023/11/26 02:18:08;;;;;;;25.20;11.93;;;0.40;99.90;;;;;;6233988;28;20060;-88
2023/11/26 02:21:11;;;;;;;29.00;12.38;;;0.40;99.90;;;;;;6274878;28;20056;-88
2023/11/26 02:24:13;;;;;;;27.17;11.77;;;0.30;99.90;;;;;;6233311;28;20407;-89
2023/11/26 02:27:14;;;;;;;29.70;12.43;;;0.30;99.90;;;;;;6272093;28;20521;-89
2023/11/26 02:30:20;;;;;;;27.92;13.18;;;0.30;99.90;;;;;;6227747;28;20225;-89
2023/11/26 02:33:21;;;;;;;28.52;12.65;;;0.30;99.90;;;;;;6250253;28;20058;-88
2023/11/26 02:36:26;;;;;;;29.88;13.43;;;0.40;99.90;;;;;;6273971;28;20049;-89
2023/11/26 02:39:28;;;;;;;27.98;12.45;;;0.30;99.90;;;;;;6250441;28;20107;-90
2023/11/26 02:42:30;;;;;;;31.05;13.27;;;0.30;99.90;;;;;;6266747;28;20072;-90
2023/11/26 02:45:32;;;;;;;22.40;11.05;;;0.30;99.90;;;;;;6250032;28;20057;-89
2023/11/26 02:48:34;;;;;;;31.67;13.25;;;0.20;99.90;;;;;;6257378;28;20056;-90
2023/11/26 02:51:36;;;;;;;31.00;13.48;;;0.20;99.90;;;;;;6256986;28;20052;-89
2023/11/26 02:54:37;;;;;;;31.85;11.80;;;0.20;99.90;;;;;;6250233;28;20201;-89
2023/11/26 02:57:39;;;;;;;28.13;13.02;;;0.10;99.90;;;;;;6265920;28;20129;-89
2023/11/26 03:00:42;;;;;;;28.08;12.43;;;0.00;99.90;;;;;;6244824;28;20061;-89
2023/11/26 03:03:45;;;;;;;29.67;13.40;;;0.10;99.90;;;;;;6245265;28;20407;-89
2023/11/26 03:06:47;;;;;;;30.00;12.82;;;0.00;99.90;;;;;;6252705;28;20056;-87
2023/11/26 03:13:12;;;;;;;26.52;11.45;;;0.00;99.90;;;;;;6256933;28;20500;-88
2023/11/26 03:16:15;;;;;;;30.75;12.27;;;0.10;99.90;;;;;;6230671;28;20112;-87
2023/11/26 03:19:16;;;;;;;31.05;12.60;;;0.10;99.90;;;;;;6272543;28;20136;-88
2023/11/26 03:22:18;;;;;;;26.33;11.50;;;0.20;99.90;;;;;;6272240;28;20053;-88
2023/11/26 03:25:20;;;;;;;25.08;11.30;;;0.20;99.90;;;;;;6231645;28;20124;-86
2023/11/26 03:28:22;;;;;;;25.92;10.85;;;0.30;99.90;;;;;;6259728;28;20541;-88
2023/11/26 03:31:23;;;;;;;28.67;11.05;;;0.30;99.90;;;;;;6272323;28;20059;-86
2023/11/26 03:34:28;;;;;;;26.23;11.57;;;0.30;99.90;;;;;;6255252;28;20049;-88
2023/11/26 03:37:30;;;;;;;30.20;11.88;;;0.30;99.90;;;;;;6247425;28;20046;-87
2023/11/26 03:40:31;;;;;;;25.20;11.20;;;0.40;99.90;;;;;;6275566;28;20103;-86
2023/11/26 03:43:33;;;;;;;28.25;11.13;;;0.40;99.90;;;;;;6241851;28;20586;-86
2023/11/26 03:46:35;;;;;;;26.35;11.23;;;0.40;99.90;;;;;;6276418;28;20091;-86
2023/11/26 03:49:37;;;;;;;23.05;10.82;;;0.50;99.90;;;;;;6252248;28;20065;-86
2023/11/26 03:52:39;;;;;;;24.10;11.27;;;0.50;99.90;;;;;;6275945;28;20053;-85
2023/11/26 03:55:40;;;;;;;25.42;11.73;;;0.50;99.90;;;;;;6251316;28;20046;-86
2023/11/26 03:58:42;;;;;;;25.10;12.00;;;0.60;99.90;;;;;;6252677;28;20063;-86
2023/11/26 04:01:44;;;;;;;28.23;10.93;;;0.60;99.90;;;;;;6234539;28;20054;-88
2023/11/26 04:04:46;;;;;;;25.30;11.95;;;0.70;99.90;;;;;;6276280;28;20392;-88
2023/11/26 04:07:47;;;;;;;26.02;11.15;;;0.70;99.90;;;;;;6252862;28;20144;-86
2023/11/26 04:10:49;;;;;;;28.65;11.50;;;0.70;99.90;;;;;;6258558;28;20045;-87
2023/11/26 04:13:51;;;;;;;25.25;11.13;;;0.70;99.90;;;;;;6248570;28;20561;-88
2023/11/26 04:16:53;;;;;;;23.90;10.50;;;0.80;99.90;;;;;;6277895;28;20045;-89
2023/11/26 04:19:54;;;;;;;21.13;10.48;;;0.70;99.90;;;;;;6254131;28;20061;-89
2023/11/26 04:22:56;;;;;;;22.42;10.77;;;0.80;99.90;;;;;;6277712;28;20072;-89
2023/11/26 04:26:00;;;;;;;25.55;11.23;;;0.80;99.90;;;;;;6236489;28;20148;-90
2023/11/26 04:29:02;;;;;;;23.38;10.20;;;0.80;99.90;;;;;;6259814;28;20056;-89
2023/11/26 04:32:03;;;;;;;22.65;10.55;;;0.70;99.90;;;;;;6259955;28;20049;-90
2023/11/26 04:35:06;;;;;;;25.25;10.55;;;0.70;99.90;;;;;;6260263;28;20053;-89
2023/11/26 04:38:07;;;;;;;20.92;10.07;;;0.70;99.90;;;;;;6253108;28;20053;-90
2023/11/26 04:41:09;;;;;;;21.60;10.30;;;0.70;99.90;;;;;;6276212;28;20060;-88
2023/11/26 04:44:11;;;;;;;23.52;10.50;;;0.70;99.90;;;;;;6223718;23;20046;-84
2023/11/26 04:47:12;;;;;;;21.02;9.55;;;0.60;99.90;;;;;;6223113;28;20053;-84
2023/11/26 04:50:15;;;;;;;21.95;10.05;;;0.70;99.90;;;;;;6197123;28;20053;-84
2023/11/26 04:53:17;;;;;;;25.55;10.68;;;0.60;99.90;;;;;;6221128;28;20144;-84
2023/11/26 04:56:18;;;;;;;21.98;10.55;;;0.50;99.90;;;;;;6197766;28;20094;-84
2023/11/26 04:59:20;;;;;;;20.35;9.63;;;0.60;99.90;;;;;;6216583;28;20140;-85
2023/11/26 05:02:22;;;;;;;27.38;9.60;;;0.50;99.90;;;;;;6222904;28;20058;-84
2023/11/26 05:05:24;;;;;;;24.00;9.88;;;0.50;99.90;;;;;;6195994;28;20058;-84
2023/11/26 05:08:25;;;;;;;23.50;10.70;;;0.60;99.90;;;;;;6222238;28;20065;-84
2023/11/26 05:11:27;;;;;;;22.90;9.98;;;0.60;99.90;;;;;;6198888;28;20054;-84
2023/11/26 05:14:29;;;;;;;22.42;9.75;;;0.70;99.90;;;;;;6221405;28;20069;-83
2023/11/26 05:17:30;;;;;;;20.65;9.95;;;0.70;99.90;;;;;;6198204;28;20094;-85
2023/11/26 05:20:32;;;;;;;23.85;10.93;;;0.80;99.90;;;;;;6221413;28;20188;-85
2023/11/26 05:23:34;;;;;;;20.70;8.93;;;0.80;99.90;;;;;;6199108;28;20050;-85
2023/11/26 05:26:35;;;;;;;21.50;9.50;;;0.80;99.90;;;;;;6222570;28;20054;-85
2023/11/26 05:29:37;;;;;;;24.40;10.13;;;0.80;99.90;;;;;;6197132;28;20053;-86
2023/11/26 05:32:39;;;;;;;22.83;10.02;;;0.80;99.90;;;;;;6222350;28;20508;-87
2023/11/26 05:35:41;;;;;;;19.63;10.15;;;0.80;99.90;;;;;;6200415;28;20050;-87
2023/11/26 05:38:42;;;;;;;22.55;10.00;;;0.80;99.90;;;;;;6222501;28;20058;-85
2023/11/26 05:41:44;;;;;;;23.65;10.55;;;0.80;99.90;;;;;;6200041;28;20093;-85
2023/11/26 05:44:46;;;;;;;22.98;10.20;;;0.70;99.90;;;;;;6207245;28;20055;-83
2023/11/26 05:47:47;;;;;;;22.00;9.65;;;0.60;99.90;;;;;;6220920;28;20671;-83
2023/11/26 05:50:49;;;;;;;25.23;10.70;;;0.60;99.90;;;;;;6196808;28;20057;-83
2023/11/26 05:53:51;;;;;;;18.50;9.65;;;0.50;99.90;;;;;;6221414;28;20057;-84
2023/11/26 05:56:53;;;;;;;21.23;10.30;;;0.50;99.90;;;;;;6198071;28;20410;-84
2023/11/26 05:59:54;;;;;;;20.33;9.48;;;0.40;99.90;;;;;;6221471;28;20057;-83
2023/11/26 06:02:56;;;;;;;21.38;9.52;;;0.40;99.90;;;;;;6198280;28;20050;-84
2023/11/26 06:05:57;;;;;;;22.02;10.88;;;0.40;99.90;;;;;;6219686;28;20513;-84
2023/11/26 06:08:59;;;;;;;19.45;8.77;;;0.40;99.90;;;;;;6197338;28;20054;-84
2023/11/26 06:12:01;;;;;;;22.95;9.90;;;0.40;99.90;;;;;;6221835;28;20054;-85
2023/11/26 06:15:03;;;;;;;21.80;9.40;;;0.40;99.90;;;;;;6196970;28;20058;-84
2023/11/26 06:18:05;;;;;;;19.13;9.23;;;0.40;99.90;;;;;;6196802;28;20398;-84
2023/11/26 06:21:09;;;;;;;21.73;9.75;;;0.40;99.90;;;;;;6222599;28;20053;-84
2023/11/26 06:24:11;;;;;;;21.80;9.77;;;0.50;99.90;;;;;;6198407;28;20081;-84
2023/11/26 06:27:12;;;;;;;25.20;9.80;;;0.40;99.90;;;;;;6220404;28;20050;-84
2023/11/26 06:30:14;;;;;;;23.35;9.45;;;0.40;99.90;;;;;;6192824;28;20061;-84
2023/11/26 06:33:16;;;;;;;22.33;10.10;;;0.40;99.90;;;;;;6196830;28;20407;-84
2023/11/26 06:36:18;;;;;;;21.27;9.45;;;0.40;99.90;;;;;;6211939;28;20181;-84
2023/11/26 06:39:23;;;;;;;20.13;9.57;;;0.40;99.90;;;;;;6222125;28;20046;-84
2023/11/26 06:42:26;;;;;;;23.55;9.50;;;0.30;99.90;;;;;;6196320;28;20052;-86
2023/11/26 06:45:27;;;;;;;24.40;10.50;;;0.30;99.90;;;;;;6201993;28;20058;-85
2023/11/26 06:48:29;;;;;;;21.70;10.10;;;0.30;99.90;;;;;;6221438;28;20135;-86
2023/11/26 06:51:31;;;;;;;23.08;10.15;;;0.40;99.90;;;;;;6198371;28;20133;-85
2023/11/26 06:54:33;;;;;;;24.48;10.35;;;0.40;99.90;;;;;;6222045;28;20061;-85
2023/11/26 06:57:35;;;;;;;22.48;10.05;;;0.50;99.90;;;;;;6201895;28;20053;-86
2023/11/26 07:00:38;;;;;;;23.05;10.07;;;0.50;99.90;;;;;;6222470;28;20077;-86
2023/11/26 07:03:39;;;;;;;21.88;10.40;;;0.60;99.90;;;;;;6196664;28;20058;-85
2023/11/26 07:06:42;;;;;;;22.20;9.35;;;0.60;99.90;;;;;;6216702;28;20057;-83
2023/11/26 07:09:44;;;;;;;22.83;10.25;;;0.70;99.90;;;;;;6196791;28;20050;-85
2023/11/26 07:12:45;;;;;;;23.35;10.35;;;0.70;99.90;;;;;;6213766;28;20050;-84
2023/11/26 07:15:50;;;;;;;22.80;10.40;;;0.80;99.90;;;;;;6196158;28;20039;-85
2023/11/26 07:18:52;;;;;;;24.60;10.85;;;0.80;99.90;;;;;;6198961;28;20054;-87
2023/11/26 07:21:53;;;;;;;20.92;9.60;;;0.80;99.90;;;;;;6213197;28;20061;-85
2023/11/26 07:24:55;;;;;;;24.80;11.15;;;0.90;99.90;;;;;;6220037;28;20057;-85
2023/11/26 07:28:02;;;;;;;23.70;10.05;;;1.00;99.90;;;;;;6201711;28;20053;-85
2023/11/26 07:31:04;;;;;;;22.60;10.00;;;1.10;99.90;;;;;;6220218;28;20497;-85
2023/11/26 07:34:06;;;;;;;22.98;9.73;;;1.10;99.90;;;;;;6195949;28;20058;-84
2023/11/26 07:37:07;;;;;;;21.58;9.68;;;1.10;99.90;;;;;;6218782;28;20085;-83
2023/11/26 07:40:09;;;;;;;22.98;9.35;;;1.10;99.90;;;;;;6217050;22;20053;-91
2023/11/26 07:43:11;;;;;;;19.77;9.57;;;1.10;99.90;;;;;;6261859;28;20064;-89
2023/11/26 07:46:12;;;;;;;21.48;9.35;;;1.10;99.90;;;;;;6228328;28;20057;-90
2023/11/26 07:49:14;;;;;;;21.33;9.80;;;1.10;99.90;;;;;;6252287;28;20053;-90
2023/11/26 07:52:16;;;;;;;24.75;10.48;;;1.10;99.90;;;;;;6228073;28;20053;-89
2023/11/26 07:55:18;;;;;;;24.30;10.00;;;1.20;99.90;;;;;;6269659;28;20060;-89
2023/11/26 07:58:22;;;;;;;22.08;10.30;;;1.20;99.90;;;;;;6252645;28;20098;-88
2023/11/26 08:01:24;;;;;;;24.40;10.32;;;1.20;99.90;;;;;;6251252;28;20061;-89
2023/11/26 08:04:28;;;;;;;19.77;10.00;;;1.10;99.90;;;;;;6273483;28;20064;-92
2023/11/26 08:07:30;;;;;;;24.85;10.85;;;1.10;99.90;;;;;;6245267;28;20057;-89
2023/11/26 08:10:33;;;;;;;25.23;10.80;;;1.10;99.90;;;;;;6269444;28;20070;-89
2023/11/26 08:13:38;;;;;;;24.67;10.35;;;1.10;99.90;;;;;;6258442;28;20068;-91
2023/11/26 08:16:40;;;;;;;23.48;10.55;;;1.10;99.90;;;;;;6228539;28;20061;-90
2023/11/26 08:19:42;;;;;;;20.40;9.80;;;1.10;99.90;;;;;;6251579;28;20053;-91
2023/11/26 08:22:46;;;;;;;22.23;10.68;;;1.00;99.90;;;;;;6246025;28;20160;-91
2023/11/26 08:25:48;;;;;;;23.50;10.13;;;1.10;99.90;;;;;;6272462;28;20415;-90
2023/11/26 08:28:58;;;;;;;23.75;10.13;;;1.10;99.90;;;;;;6253892;28;20155;-91
2023/11/26 08:32:03;;;;;;;26.88;11.73;;;1.20;99.90;;;;;;6232145;28;20140;-90
2023/11/26 08:35:06;;;;;;;20.55;10.63;;;1.30;99.90;;;;;;6273099;28;20134;-89
2023/11/26 08:38:08;;;;;;;26.02;10.10;;;1.40;99.90;;;;;;6232296;28;20069;-92
2023/11/26 08:41:13;;;;;;;22.60;10.32;;;1.50;99.90;;;;;;6272900;28;20088;-94
2023/11/26 08:44:15;;;;;;;24.48;10.32;;;1.70;99.90;;;;;;6229851;28;20064;-93
2023/11/26 08:47:20;;;;;;;25.23;11.38;;;1.80;99.90;;;;;;6256559;28;20261;-92
2023/11/26 08:50:22;;;;;;;23.83;10.88;;;1.90;99.90;;;;;;6232784;28;20160;-92
2023/11/26 08:53:24;;;;;;;25.10;10.27;;;2.00;99.90;;;;;;6274289;28;20059;-91
2023/11/26 08:56:25;;;;;;;24.55;10.80;;;2.30;99.90;;;;;;6249611;28;20132;-91
2023/11/26 08:59:30;;;;;;;22.58;10.25;;;2.50;99.90;;;;;;6267768;28;20053;-94
2023/11/26 09:02:31;;;;;;;22.80;10.38;;;2.80;99.90;;;;;;6232913;28;20557;-91
2023/11/26 09:05:33;;;;;;;19.13;9.38;;;3.00;99.90;;;;;;6274147;28;20059;-89
2023/11/26 09:08:35;;;;;;;18.63;9.40;;;3.10;99.90;;;;;;6250613;28;20053;-92
2023/11/26 09:11:37;;;;;;;19.52;9.13;;;3.30;99.90;;;;;;6273349;28;20060;-90
2023/11/26 09:14:38;;;;;;;20.20;9.50;;;3.30;99.90;;;;;;6233229;28;20061;-94
2023/11/26 09:17:41;;;;;;;22.35;10.00;;;3.40;99.90;;;;;;6232364;28;20417;-88
2023/11/26 09:20:43;;;;;;;21.95;9.98;;;3.50;99.90;;;;;;6254644;28;20182;-87
2023/11/26 09:23:45;;;;;;;22.05;9.65;;;3.60;99.90;;;;;;6248594;28;20068;-88
2023/11/26 09:26:46;;;;;;;18.63;9.38;;;3.70;99.90;;;;;;6280499;28;20045;-94
2023/11/26 09:29:48;;;;;;;20.98;9.60;;;3.80;97.50;;;;;;6233271;28;20196;-89
2023/11/26 09:32:49;;;;;;;20.60;9.80;;;3.90;99.90;;;;;;6230713;28;20053;-89
2023/11/26 09:35:51;;;;;;;21.02;10.50;;;4.00;99.00;;;;;;6249686;28;20140;-89
2023/11/26 09:38:53;;;;;;;20.63;9.70;;;4.20;99.30;;;;;;6248918;28;20061;-90
2023/11/26 09:41:57;;;;;;;20.10;10.07;;;4.20;99.00;;;;;;6253612;28;20072;-88
2023/11/26 09:44:58;;;;;;;24.63;10.15;;;4.20;99.00;;;;;;6273232;28;20210;-92
2023/11/26 09:48:00;;;;;;;20.77;9.85;;;4.30;97.40;;;;;;6255736;28;20558;-92
2023/11/26 09:51:02;;;;;;;20.85;10.23;;;4.40;95.80;;;;;;6254716;28;20464;-92
2023/11/26 09:54:04;;;;;;;21.75;9.73;;;4.50;96.70;;;;;;6234352;28;20065;-91
2023/11/26 09:57:05;;;;;;;22.92;9.20;;;4.60;94.70;;;;;;6252961;28;20347;-89
2023/11/26 10:00:10;;;;;;;22.30;8.65;;;4.60;94.90;;;;;;6233747;28;20053;-90
2023/11/26 10:03:12;;;;;;;19.13;9.73;;;4.60;94.30;;;;;;6209917;28;20050;-91
2023/11/26 10:06:13;;;;;;;17.92;8.70;;;4.60;93.30;;;;;;6259444;28;20049;-91
2023/11/26 10:09:18;;;;;;;18.13;8.43;;;4.70;93.60;;;;;;6235563;28;20061;-90
2023/11/26 10:12:20;;;;;;;21.45;9.00;;;4.60;91.60;;;;;;6271237;28;20045;-92
2023/11/26 10:15:22;;;;;;;17.52;8.43;;;4.70;92.70;;;;;;6232747;28;20053;-91
2023/11/26 10:18:24;;;;;;;19.88;8.95;;;4.70;93.10;;;;;;6228905;28;20045;-92
2023/11/26 10:21:26;;;;;;;20.27;9.50;;;4.80;94.80;;;;;;6280451;28;20057;-90
2023/11/26 10:24:27;;;;;;;20.05;9.45;;;4.90;93.80;;;;;;6256314;28;20049;-90
2023/11/26 10:27:29;;;;;;;19.50;9.43;;;5.00;93.80;;;;;;6239196;28;20053;-92
2023/11/26 10:30:32;;;;;;;19.80;9.02;;;5.10;94.30;;;;;;6243761;28;20088;-92
2023/11/26 10:33:34;;;;;;;22.35;9.60;;;5.20;91.40;;;;;;6219659;28;20393;-93
2023/11/26 10:36:36;;;;;;;21.27;8.80;;;5.30;92.00;;;;;;6286485;28;20060;-92
2023/11/26 10:39:38;;;;;;;14.13;6.93;;;5.50;90.90;;;;;;6262713;28;20076;-92
2023/11/26 10:42:39;;;;;;;18.50;7.63;;;5.60;90.30;;;;;;6248476;28;20067;-92
2023/11/26 10:45:44;;;;;;;17.02;8.20;;;5.70;85.40;;;;;;6273567;28;20079;-93
2023/11/26 10:48:46;;;;;;;17.77;7.60;;;5.70;82.00;;;;;;6265962;28;20060;-93
2023/11/26 10:51:51;;;;;;;14.23;7.15;;;5.80;85.80;;;;;;6266577;28;20049;-93
2023/11/26 10:54:53;;;;;;;19.38;8.15;;;5.80;81.00;;;;;;6256270;28;20053;-92
2023/11/26 10:57:55;;;;;;;16.80;7.50;;;5.80;81.00;;;;;;6249104;28;20060;-93
2023/11/26 11:01:00;;;;;;;17.33;6.80;;;5.80;84.30;;;;;;6232747;28;20104;-93
2023/11/26 11:04:01;;;;;;;14.63;6.50;;;5.80;82.00;;;;;;6274300;28;20078;-93
2023/11/26 11:07:03;;;;;;;15.77;7.30;;;5.80;78.40;;;;;;6248624;28;20057;-94
2023/11/26 11:10:06;;;;;;;15.93;7.00;;;5.80;78.40;;;;;;6271773;28;20052;-92
2023/11/26 11:13:08;;;;;;;15.70;7.38;;;5.80;75.00;;;;;;6226123;28;20053;-93
2023/11/26 11:16:10;;;;;;;19.58;7.90;;;5.80;79.50;;;;;;6228229;28;20060;-91
2023/11/26 11:19:11;;;;;;;17.30;7.40;;;5.80;71.70;;;;;;6228785;28;20113;-91
2023/11/26 11:22:14;;;;;;;17.13;6.78;;;5.80;75.30;;;;;;6246330;28;20144;-93
2023/11/26 11:25:16;;;;;;;14.90;7.10;;;5.90;74.10;;;;;;6253913;28;20045;-92
2023/11/26 11:28:18;;;;;;;18.00;7.38;;;5.90;74.60;;;;;;6252919;28;20160;-93
2023/11/26 11:31:20;;;;;;;20.20;7.57;;;6.00;67.80;;;;;;6228900;28;20516;-92
2023/11/26 11:34:21;;;;;;;17.20;7.80;;;6.00;68.70;;;;;;6228694;28;20060;-92
2023/11/26 11:37:23;;;;;;;15.70;7.03;;;6.00;67.90;;;;;;6245930;28;20397;-92
2023/11/26 11:40:25;;;;;;;14.60;7.47;;;6.00;71.10;;;;;;6251418;28;20503;-92
2023/11/26 11:43:27;;;;;;;17.48;7.70;;;6.00;67.70;;;;;;6259541;28;20081;-88
2023/11/26 11:46:28;;;;;;;16.50;7.60;;;6.10;69.40;;;;;;6228994;28;20065;-89
2023/11/26 11:49:32;;;;;;;15.23;7.35;;;6.20;65.30;;;;;;6246768;28;20394;-88
2023/11/26 11:52:34;;;;;;;16.80;6.80;;;6.40;72.60;;;;;;6271329;28;20056;-87
2023/11/26 11:55:35;;;;;;;19.00;7.30;;;6.50;64.10;;;;;;6248036;28;20140;-92
2023/11/26 11:58:37;;;;;;;17.02;6.80;;;6.60;59.20;;;;;;6251329;28;20050;-90
2023/11/26 12:01:39;;;;;;;17.38;7.50;;;6.70;63.50;;;;;;6256259;28;20421;-90
2023/11/26 12:04:41;;;;;;;15.73;7.07;;;6.80;55.60;;;;;;6250592;28;20143;-89
2023/11/26 12:07:44;;;;;;;21.45;6.93;;;6.90;58.70;;;;;;6250096;28;20512;-88
2023/11/26 12:10:45;;;;;;;16.33;7.10;;;6.90;63.10;;;;;;6250640;28;20060;-86
2023/11/26 12:13:47;;;;;;;13.48;6.68;;;7.00;67.20;;;;;;6261683;28;20052;-91
2023/11/26 12:16:49;;;;;;;12.48;6.05;;;7.00;58.50;;;;;;6251011;28;20057;-90
2023/11/26 12:19:50;;;;;;;11.55;5.10;;;7.00;48.70;;;;;;6231357;28;20045;-91
2023/11/26 12:22:52;;;;;;;11.10;4.78;;;7.00;53.70;;;;;;6252006;28;20519;-88
2023/11/26 12:25:56;;;;;;;12.52;4.65;;;7.00;35.80;;;;;;6253267;28;20060;-93
2023/11/26 12:28:57;;;;;;;12.35;5.05;;;7.20;48.90;;;;;;6239554;28;20045;-92
2023/11/26 12:32:00;;;;;;;13.75;4.70;;;7.30;39.10;;;;;;6233242;28;20523;-91
2023/11/26 12:35:03;;;;;;;14.68;4.80;;;7.40;31.10;;;;;;6232380;28;20080;-92
2023/11/26 12:38:04;;;;;;;12.65;3.80;;;7.60;25.40;;;;;;6256537;28;20492;-92
2023/11/26 12:41:06;;;;;;;12.85;4.00;;;7.60;29.40;;;;;;6260258;28;20057;-91
2023/11/26 12:44:07;;;;;;;10.02;4.03;;;7.60;20.80;;;;;;6241346;28;20073;-92
2023/11/26 12:47:09;;;;;;;12.85;3.63;;;7.60;29.90;;;;;;6249532;28;20061;-90
2023/11/26 12:50:12;;;;;;;9.60;3.40;;;7.60;19.60;;;;;;6255679;28;20061;-93
2023/11/26 12:53:17;;;;;;;12.57;3.22;;;7.70;21.80;;;;;;6251994;28;20501;-91
2023/11/26 12:56:19;;;;;;;10.20;3.22;;;7.70;15.70;;;;;;6255152;28;20155;-91
2023/11/26 12:59:21;;;;;;;13.02;3.75;;;7.60;17.90;;;;;;6229249;28;20058;-93
2023/11/26 13:02:25;;;;;;;11.57;3.75;;;7.60;26.30;;;;;;6261083;28;20064;-92
2023/11/26 13:05:27;;;;;;;10.25;3.85;;;7.50;21.90;;;;;;6238588;28;20136;-93
2023/11/26 13:08:29;;;;;;;9.15;3.97;;;7.50;25.30;;;;;;6276904;28;20048;-92
2023/11/26 13:11:36;;;;;;;13.55;3.92;;;7.50;25.30;;;;;;6235344;28;20062;-90
2023/11/26 13:14:38;;;;;;;10.40;3.47;;;7.40;21.30;;;;;;6226507;28;20054;-89
2023/11/26 13:17:40;;;;;;;10.25;3.83;;;7.40;25.20;;;;;;6254873;28;20053;-87
2023/11/26 13:20:48;;;;;;;11.68;3.53;;;7.40;24.40;;;;;;6232371;28;20057;-89
2023/11/26 13:23:50;;;;;;;11.15;3.63;;;7.30;23.70;;;;;;6207044;28;20054;-84
2023/11/26 13:26:51;;;;;;;8.88;3.33;;;7.20;25.00;;;;;;6270546;28;20500;-85
2023/11/26 13:29:53;;;;;;;9.77;3.42;;;7.20;46.00;;;;;;6247278;28;20049;-89
2023/11/26 13:32:55;;;;;;;10.07;3.30;;;7.30;39.40;;;;;;6275562;28;20052;-88
2023/11/26 13:36:00;;;;;;;11.00;3.65;;;7.30;39.40;;;;;;6248738;28;20455;-84
2023/11/26 13:39:02;;;;;;;10.07;3.53;;;7.30;41.90;;;;;;6279009;28;20049;-90
2023/11/26 13:42:04;;;;;;;14.23;3.90;;;7.40;46.80;;;;;;6263405;28;20074;-91
2023/11/26 13:45:05;;;;;;;8.77;3.58;;;7.40;51.90;;;;;;6232693;28;20049;-93
2023/11/26 13:48:22;;;;;;;11.73;3.90;;;7.50;63.10;;;;;;6229100;28;20050;-87
2023/11/26 13:51:24;;;;;;;13.75;4.40;;;7.40;79.40;;;;;;6227290;28;20057;-92
2023/11/26 13:54:26;;;;;;;10.43;4.70;;;7.30;91.80;;;;;;6258058;28;20465;-89
2023/11/26 13:57:29;;;;;;;11.65;4.65;;;7.10;95.70;;;;;;6252399;28;20523;-89
2023/11/26 14:00:31;;;;;;;10.55;5.03;;;7.00;98.90;;;;;;6255434;28;20563;-88
2023/11/26 14:03:33;;;;;;;11.90;5.28;;;7.00;99.90;;;;;;6220780;28;20464;-88
2023/11/26 14:06:35;;;;;;;12.15;5.45;;;7.00;99.90;;;;;;6268786;28;20056;-88
2023/11/26 14:09:37;;;;;;;15.93;6.00;;;6.80;99.90;;;;;;6245589;28;20062;-87
2023/11/26 14:12:39;;;;;;;13.77;6.20;;;6.80;99.90;;;;;;6230643;28;20049;-86
2023/11/26 14:15:42;;;;;;;11.98;5.60;;;6.80;99.90;;;;;;6252980;28;20131;-87
2023/11/26 14:18:44;;;;;;;13.77;5.68;;;6.80;99.90;;;;;;6228792;28;20583;-87
2023/11/26 14:21:46;;;;;;;11.73;5.40;;;6.80;99.90;;;;;;6228766;28;20053;-89
2023/11/26 14:24:47;;;;;;;11.68;5.70;;;6.70;99.90;;;;;;6245716;28;20049;-88
2023/11/26 14:27:49;;;;;;;14.05;6.40;;;6.80;99.90;;;;;;6243139;28;20157;-89
2023/11/26 14:30:51;;;;;;;16.88;6.30;;;6.80;99.90;;;;;;6228040;28;20525;-88
2023/11/26 14:33:55;;;;;;;11.90;6.15;;;6.80;99.90;;;;;;6252186;28;20053;-87
2023/11/26 14:36:58;;;;;;;16.08;6.78;;;6.80;99.90;;;;;;6228558;28;20473;-85
2023/11/26 14:40:09;;;;;;;16.13;6.63;;;6.80;99.90;;;;;;6268696;28;20434;-88
2023/11/26 14:43:11;;;;;;;11.82;6.50;;;6.90;99.90;;;;;;6235368;28;20052;-88
2023/11/26 14:46:13;;;;;;;15.85;6.97;;;6.90;99.90;;;;;;6227794;28;20522;-85
2023/11/26 14:49:14;;;;;;;17.95;7.30;;;6.90;99.90;;;;;;6228083;28;20340;-89
2023/11/26 14:52:17;;;;;;;15.77;7.38;;;7.00;99.90;;;;;;6251985;28;20049;-92
2023/11/26 14:55:19;;;;;;;15.60;7.10;;;7.00;99.90;;;;;;6228832;28;20061;-88
2023/11/26 14:58:21;;;;;;;19.13;7.93;;;7.00;99.90;;;;;;6236717;28;20060;-90
2023/11/26 15:01:23;;;;;;;15.70;7.07;;;7.00;99.90;;;;;;6247059;28;20096;-93
2023/11/26 15:04:25;;;;;;;18.70;7.15;;;7.10;99.90;;;;;;6269453;28;20084;-89
2023/11/26 15:07:26;;;;;;;16.85;8.05;;;7.00;99.90;;;;;;6244727;28;20187;-84
2023/11/26 15:10:28;;;;;;;16.13;7.78;;;7.10;99.90;;;;;;6268317;28;20519;-85
2023/11/26 15:13:30;;;;;;;18.60;8.55;;;7.10;99.90;;;;;;6254326;28;20072;-88
2023/11/26 15:16:32;;;;;;;17.42;8.65;;;7.10;99.90;;;;;;6227365;28;20057;-88
2023/11/26 15:19:36;;;;;;;18.15;8.77;;;7.10;99.90;;;;;;6226524;28;20111;-89
2023/11/26 15:22:40;;;;;;;19.10;8.68;;;7.10;99.90;;;;;;6251968;28;20640;-87
2023/11/26 15:25:41;;;;;;;23.65;12.02;;;7.10;99.90;;;;;;6227271;28;20632;-88
2023/11/26 15:28:43;;;;;;;24.58;12.02;;;7.20;99.90;;;;;;6239338;28;20060;-87
2023/11/26 15:31:45;;;;;;;39.60;18.45;;;7.20;99.90;;;;;;6227144;28;20057;-86
2023/11/26 15:34:46;;;;;;;28.58;13.45;;;7.20;99.90;;;;;;6226228;28;20519;-86
2023/11/26 15:37:48;;;;;;;19.73;11.35;;;7.20;99.90;;;;;;6244873;28;20148;-86
2023/11/26 15:40:50;;;;;;;23.75;11.55;;;7.20;99.90;;;;;;6242444;28;20058;-85
2023/11/26 15:43:51;;;;;;;18.88;10.10;;;7.20;99.90;;;;;;6253493;28;20096;-88
2023/11/26 15:46:53;;;;;;;20.35;10.38;;;7.20;99.90;;;;;;6227714;28;20045;-87